Time;durP1;ratioP1;P1;durP2;ratioP2;P2;SDS_P1;SDS_P2;PMS_P1;PMS_P2;Temp;Humidity;BMP_temperature;BMP_pressure;BME280_temperature;BME280_humidity;BME280_pressure;Samples;Min_cycle;Max_cycle;Signal;HPM_P1;HPM_P2
2022/04/01 00:01:04;;;;;;;16.48;12.15;;;;;;;9.06;100.00;94111.31;5046779;28;20056;-61
2022/04/01 00:03:32;;;;;;;15.55;11.43;;;;;;;8.81;100.00;94101.25;5047115;28;20068;-61
2022/04/01 00:06:00;;;;;;;16.02;11.07;;;;;;;9.00;100.00;94105.78;5047339;28;20546;-62
2022/04/01 00:08:29;;;;;;;17.83;12.25;;;;;;;9.11;100.00;94106.25;5048363;28;20091;-60
2022/04/01 00:10:57;;;;;;;16.00;11.73;;;;;;;8.90;100.00;94104.50;5046272;28;20464;-62
2022/04/01 00:13:26;;;;;;;16.70;11.82;;;;;;;8.82;100.00;94102.03;5047914;28;20069;-61
2022/04/01 00:15:54;;;;;;;16.88;11.80;;;;;;;8.87;100.00;94104.91;5046266;28;20072;-62
2022/04/01 00:18:24;;;;;;;20.00;12.80;;;;;;;8.94;100.00;94106.56;5045966;28;20061;-62
2022/04/01 00:20:52;;;;;;;17.98;12.68;;;;;;;9.07;100.00;94092.69;5048612;28;20531;-62
2022/04/01 00:23:20;;;;;;;18.33;12.75;;;;;;;9.04;100.00;94100.97;5047090;28;20075;-60
2022/04/01 00:25:48;;;;;;;17.05;12.05;;;;;;;8.62;100.00;94102.72;5048731;28;20464;-62
2022/04/01 00:28:17;;;;;;;17.75;12.00;;;;;;;8.64;100.00;94095.47;5045934;28;20071;-60
2022/04/01 00:30:45;;;;;;;17.25;12.43;;;;;;;8.94;100.00;94096.03;5047245;28;20067;-60
2022/04/01 00:33:16;;;;;;;15.63;12.00;;;;;;;8.91;100.00;94103.50;5044873;28;20569;-62
2022/04/01 00:35:46;;;;;;;17.77;12.35;;;;;;;8.76;100.00;94093.09;5046305;28;20103;-61
2022/04/01 00:38:14;;;;;;;17.02;11.80;;;;;;;8.65;100.00;94097.06;5047307;28;20075;-61
2022/04/01 00:40:42;;;;;;;17.30;13.02;;;;;;;8.96;100.00;94096.69;5046254;28;20085;-59
2022/04/01 00:43:11;;;;;;;16.33;10.82;;;;;;;8.60;100.00;94093.38;5047426;28;20061;-62
2022/04/01 00:45:39;;;;;;;15.77;11.40;;;;;;;8.49;100.00;94097.34;5043500;28;20550;-62
2022/04/01 00:48:08;;;;;;;16.73;11.63;;;;;;;8.60;100.00;94094.19;5046739;28;20083;-61
2022/04/01 00:50:37;;;;;;;15.55;11.98;;;;;;;8.67;100.00;94096.88;5045674;28;20085;-61
2022/04/01 00:53:07;;;;;;;17.35;12.45;;;;;;;8.81;100.00;94095.97;5045390;28;20436;-61
2022/04/01 00:55:35;;;;;;;17.70;12.47;;;;;;;8.88;100.00;94094.22;5046943;28;20065;-61
2022/04/01 00:58:05;;;;;;;17.58;12.48;;;;;;;8.98;100.00;94094.69;5046325;28;20465;-62
2022/04/01 01:00:35;;;;;;;17.17;12.13;;;;;;;8.97;100.00;94093.03;5045025;28;20541;-62
2022/04/01 01:03:04;;;;;;;16.37;10.87;;;;;;;8.94;100.00;94082.09;5043988;28;20080;-62
2022/04/01 01:05:33;;;;;;;15.57;11.30;;;;;;;8.95;100.00;94091.63;5047703;28;20081;-62
2022/04/01 01:08:05;;;;;;;15.38;11.52;;;;;;;8.80;100.00;94083.81;5045283;28;20065;-61
2022/04/01 01:10:35;;;;;;;16.20;11.95;;;;;;;9.04;100.00;94082.56;5046198;28;20523;-61
2022/04/01 01:13:04;;;;;;;14.25;11.07;;;;;;;8.89;100.00;94087.13;5044730;28;20072;-62
2022/04/01 01:15:32;;;;;;;15.30;11.05;;;;;;;8.87;100.00;94084.69;5044857;28;20076;-62
2022/04/01 01:18:00;;;;;;;14.95;11.65;;;;;;;9.07;100.00;94081.38;5045374;28;20095;-58
2022/04/01 01:20:29;;;;;;;15.38;11.30;;;;;;;9.19;100.00;94083.28;5046851;28;20072;-61
2022/04/01 01:22:57;;;;;;;17.05;11.68;;;;;;;9.07;100.00;94079.56;5042777;28;20621;-62
2022/04/01 01:25:27;;;;;;;16.60;11.95;;;;;;;8.92;100.00;94081.50;5046441;28;20118;-61
2022/04/01 01:27:56;;;;;;;16.90;12.17;;;;;;;8.87;100.00;94079.44;5044111;28;20063;-62
2022/04/01 01:30:24;;;;;;;15.75;11.80;;;;;;;9.02;100.00;94068.81;5044984;28;20894;-62
2022/04/01 01:32:53;;;;;;;16.45;10.65;;;;;;;8.53;100.00;94067.06;5045748;28;20091;-59
2022/04/01 01:35:22;;;;;;;15.65;11.32;;;;;;;8.65;100.00;94070.81;5046147;28;20100;-61
2022/04/01 01:37:50;;;;;;;16.08;11.02;;;;;;;8.75;100.00;94068.66;5044903;28;20075;-61
2022/04/01 01:40:18;;;;;;;15.38;10.85;;;;;;;8.86;100.00;94063.88;5046229;28;20065;-62
2022/04/01 01:42:48;;;;;;;17.30;12.07;;;;;;;8.52;100.00;94061.00;5042750;28;20068;-62
2022/04/01 01:45:19;;;;;;;15.13;11.43;;;;;;;8.23;100.00;94058.53;5045924;28;20044;-61
2022/04/01 01:47:47;;;;;;;17.13;13.20;;;;;;;7.96;100.00;94057.47;5045234;28;20080;-60
2022/04/01 01:55:48;;;;;;;14.48;10.55;;;;;;;7.92;100.00;94056.25;5045319;28;20471;-62
2022/04/01 01:58:18;;;;;;;15.63;11.25;;;;;;;8.58;100.00;94058.63;5045311;28;20080;-59
2022/04/01 02:00:46;;;;;;;18.40;13.00;;;;;;;8.31;100.00;94053.13;5043990;28;20068;-62
2022/04/01 02:03:15;;;;;;;16.88;12.38;;;;;;;8.24;100.00;94047.03;5045916;28;20080;-60
2022/04/01 02:05:43;;;;;;;15.73;12.10;;;;;;;8.16;100.00;94050.59;5042244;28;20088;-61
2022/04/01 02:08:11;;;;;;;14.77;11.25;;;;;;;8.20;100.00;94054.47;5043070;28;22071;-60
2022/04/01 02:10:40;;;;;;;15.18;11.43;;;;;;;8.35;100.00;94054.38;5036256;28;20065;-62
2022/04/01 02:13:08;;;;;;;13.48;10.55;;;;;;;8.04;100.00;94052.91;5044222;28;20077;-62
2022/04/01 02:15:38;;;;;;;14.48;10.30;;;;;;;8.09;100.00;94042.66;5043094;28;20037;-60
2022/04/01 02:18:07;;;;;;;13.65;10.90;;;;;;;8.17;100.00;94044.34;5043436;28;20410;-59
2022/04/01 02:20:36;;;;;;;12.90;10.07;;;;;;;7.81;100.00;94045.25;5043279;28;20064;-60
2022/04/01 02:23:04;;;;;;;13.40;10.20;;;;;;;7.85;100.00;94049.13;5042890;28;20436;-62
2022/04/01 02:25:33;;;;;;;13.95;10.75;;;;;;;7.87;100.00;94041.03;5041250;28;20065;-61
2022/04/01 02:28:01;;;;;;;13.95;10.50;;;;;;;7.67;100.00;94040.84;5041622;28;20463;-61
2022/04/01 02:30:30;;;;;;;13.07;10.10;;;;;;;8.01;100.00;94044.59;5040923;28;20069;-61
2022/04/01 02:33:00;;;;;;;15.32;10.57;;;;;;;8.02;100.00;94048.88;5045273;28;20088;-62
2022/04/01 02:35:28;;;;;;;;;;;;;;;7.75;100.00;94043.38;5044966;28;20490;-61
2022/04/01 02:37:57;;;;;;;13.57;10.25;;;;;;;7.92;100.00;94048.38;5045775;28;20015;-60
2022/04/01 02:40:25;;;;;;;14.93;10.57;;;;;;;7.87;100.00;94050.72;5045286;28;20076;-61
2022/04/01 02:42:54;;;;;;;13.30;10.15;;;;;;;7.77;100.00;94045.78;5045218;28;20486;-61
2022/04/01 02:45:24;;;;;;;13.88;10.65;;;;;;;7.89;100.00;94044.31;5044298;28;20065;-58
2022/04/01 02:47:52;;;;;;;12.95;9.85;;;;;;;7.79;100.00;94054.28;5044072;28;20079;-61
2022/04/01 02:50:22;;;;;;;12.73;9.93;;;;;;;7.82;100.00;94049.47;5044907;28;20073;-61
2022/04/01 02:52:50;;;;;;;11.93;9.40;;;;;;;7.81;100.00;94045.25;5044515;28;20558;-62
2022/04/01 02:55:19;;;;;;;13.25;10.40;;;;;;;7.94;100.00;94046.34;5045104;28;20091;-60
2022/04/01 02:57:47;;;;;;;14.15;10.30;;;;;;;8.06;100.00;94039.63;5044923;28;20072;-62
2022/04/01 03:00:21;;;;;;;13.23;9.48;;;;;;;8.36;100.00;94047.31;5044591;28;20079;-61
2022/04/01 03:02:50;;;;;;;13.43;9.88;;;;;;;8.85;100.00;94043.84;5039619;28;20061;-61
2022/04/01 03:05:19;;;;;;;14.38;10.05;;;;;;;8.74;100.00;94039.94;5043903;28;20073;-62
2022/04/01 03:07:49;;;;;;;12.77;9.73;;;;;;;8.74;100.00;94048.66;5043986;28;20065;-61
2022/04/01 03:10:23;;;;;;;12.02;9.02;;;;;;;8.85;100.00;94049.91;5043489;28;20745;-61
2022/04/01 03:12:51;;;;;;;12.52;9.15;;;;;;;8.67;100.00;94044.31;5045138;28;20072;-62
2022/04/01 03:15:20;;;;;;;12.10;9.05;;;;;;;8.50;100.00;94043.84;5044633;28;20072;-62
2022/04/01 03:17:48;;;;;;;11.95;8.68;;;;;;;8.54;100.00;94051.13;5044999;28;20080;-61
2022/04/01 03:20:17;;;;;;;11.93;9.02;;;;;;;8.71;100.00;94051.66;5047176;28;20076;-61
2022/04/01 03:22:45;;;;;;;10.88;8.88;;;;;;;8.43;100.00;94058.69;5043349;28;20073;-59
2022/04/01 03:25:18;;;;;;;10.25;8.43;;;;;;;8.59;100.00;94055.00;5048569;28;20471;-62
2022/04/01 03:27:47;;;;;;;9.38;7.78;;;;;;;8.53;100.00;94056.56;5048424;28;20628;-61
2022/04/01 03:30:17;;;;;;;8.68;7.45;;;;;;;8.53;100.00;94048.69;5046738;28;20076;-59
2022/04/01 03:32:46;;;;;;;8.82;7.45;;;;;;;8.52;100.00;94047.88;5049207;28;20085;-59
2022/04/01 03:35:16;;;;;;;9.95;7.80;;;;;;;8.39;100.00;94057.47;5046945;28;20060;-60
2022/04/01 03:37:45;;;;;;;9.98;7.70;;;;;;;8.07;100.00;94054.34;5044547;28;20079;-59
2022/04/01 03:40:16;;;;;;;10.98;8.35;;;;;;;8.22;100.00;94049.03;5045683;28;20065;-60
2022/04/01 03:42:46;;;;;;;8.68;7.47;;;;;;;8.16;100.00;94047.16;5042474;28;20074;-57
2022/04/01 03:45:17;;;;;;;11.05;8.35;;;;;;;8.35;100.00;94054.38;5043396;28;20076;-60
2022/04/01 03:47:53;;;;;;;13.82;8.80;;;;;;;8.30;100.00;94054.97;5044457;28;20064;-59
2022/04/01 03:50:29;;;;;;;12.07;8.57;;;;;;;8.20;100.00;94048.41;5044420;28;20045;-59
2022/04/01 03:53:05;;;;;;;11.65;8.65;;;;;;;8.24;100.00;94047.84;5043781;28;20519;-59
2022/04/01 03:55:37;;;;;;;12.10;8.82;;;;;;;8.25;100.00;94052.06;5044119;28;20535;-59
2022/04/01 03:58:07;;;;;;;13.35;9.40;;;;;;;8.07;100.00;94054.34;5046307;28;20452;-59
2022/04/01 04:00:38;;;;;;;9.52;7.63;;;;;;;7.85;100.00;94051.75;5044452;28;20072;-57
2022/04/01 04:03:09;;;;;;;9.35;7.30;;;;;;;7.55;100.00;94052.84;5045501;28;20142;-57
2022/04/01 04:05:39;;;;;;;10.23;7.10;;;;;;;7.30;100.00;94060.22;5042818;28;20483;-60
2022/04/01 04:08:10;;;;;;;8.02;6.38;;;;;;;7.39;100.00;94061.72;5049961;28;20071;-58
2022/04/01 04:10:41;;;;;;;7.53;6.18;;;;;;;7.36;100.00;94055.06;5047780;28;20069;-59
2022/04/01 04:13:12;;;;;;;8.25;6.90;;;;;;;7.05;100.00;94062.31;5051288;28;20057;-60
2022/04/01 04:15:45;;;;;;;7.40;6.47;;;;;;;7.12;100.00;94061.41;5050339;28;20068;-61
2022/04/01 04:18:15;;;;;;;7.47;6.45;;;;;;;7.19;100.00;94066.75;5050521;28;20087;-59
2022/04/01 04:20:54;;;;;;;6.13;5.53;;;;;;;6.79;100.00;94063.59;5050514;28;20080;-55
2022/04/01 04:23:25;;;;;;;7.90;6.95;;;;;;;7.06;100.00;94067.38;5044288;28;20068;-61
2022/04/01 04:26:02;;;;;;;7.35;6.30;;;;;;;6.98;100.00;94070.06;5050343;28;20057;-56
2022/04/01 04:28:34;;;;;;;6.80;5.70;;;;;;;6.96;100.00;94071.28;5049515;28;20064;-59
2022/04/01 04:31:05;;;;;;;6.85;5.93;;;;;;;6.92;100.00;94075.22;5050089;28;20278;-58
2022/04/01 04:33:34;;;;;;;6.60;5.90;;;;;;;6.86;100.00;94074.97;5049110;28;20053;-59
2022/04/01 04:36:04;;;;;;;7.47;5.95;;;;;;;6.65;100.00;94077.50;5050263;28;20088;-56
2022/04/01 04:38:36;;;;;;;;;;;;;;;6.63;100.00;94080.28;5050472;28;20091;-60
2022/04/01 04:41:08;;;;;;;6.60;5.82;;;;;;;6.65;100.00;94080.91;5049735;28;19955;-62
2022/04/01 04:43:39;;;;;;;8.05;6.40;;;;;;;6.45;100.00;94092.09;5047145;28;20577;-61
2022/04/01 04:46:09;;;;;;;7.47;6.15;;;;;;;6.56;100.00;94078.56;5049761;28;20057;-62
2022/04/01 04:48:40;;;;;;;8.53;6.57;;;;;;;6.58;100.00;94079.19;5049524;28;20060;-58
2022/04/01 04:51:09;;;;;;;7.45;5.95;;;;;;;6.44;100.00;94095.72;5049825;28;20087;-53
2022/04/01 04:53:39;;;;;;;7.47;6.18;;;;;;;6.28;100.00;94096.66;5049871;28;20084;-58
2022/04/01 04:56:09;;;;;;;5.22;4.68;;;;;;;6.46;100.00;94093.69;5043024;28;20136;-57
2022/04/01 04:58:39;;;;;;;7.50;6.50;;;;;;;6.61;100.00;94090.13;5048755;28;20064;-55
2022/04/01 05:01:15;;;;;;;8.05;6.00;;;;;;;6.67;100.00;94099.06;5043656;28;20064;-58
2022/04/01 05:03:52;;;;;;;7.25;5.82;;;;;;;6.39;100.00;94104.06;5049511;28;20067;-57
2022/04/01 05:06:27;;;;;;;6.80;5.53;;;;;;;6.66;100.00;94100.06;5049115;28;20083;-61
2022/04/01 05:09:00;;;;;;;7.75;6.70;;;;;;;6.70;100.00;94101.31;5049621;28;20080;-60
2022/04/01 05:11:46;;;;;;;6.93;5.70;;;;;;;6.49;100.00;94102.00;5048752;28;20084;-59
2022/04/01 05:14:28;;;;;;;7.03;6.32;;;;;;;6.60;100.00;94116.47;5049123;28;20460;-60
2022/04/01 05:17:01;;;;;;;7.15;6.10;;;;;;;6.57;100.00;94114.22;5049626;28;20567;-62
2022/04/01 05:19:31;;;;;;;7.60;6.45;;;;;;;6.75;100.00;94116.53;5048676;28;20179;-58
2022/04/01 05:22:03;;;;;;;7.67;6.17;;;;;;;6.36;100.00;94128.78;5049134;28;20069;-61
2022/04/01 05:24:38;;;;;;;7.85;6.13;;;;;;;6.66;100.00;94121.81;5048796;28;20075;-61
2022/04/01 05:27:15;;;;;;;9.68;6.38;;;;;;;6.44;100.00;94125.31;5049454;28;20080;-61
2022/04/01 05:29:43;;;;;;;7.65;6.50;;;;;;;6.75;100.00;94119.94;5044962;28;20063;-62
2022/04/01 05:32:13;;;;;;;7.90;5.68;;;;;;;6.85;100.00;94119.69;5049113;28;20076;-61
2022/04/01 05:34:45;;;;;;;7.05;5.88;;;;;;;6.66;100.00;94124.44;5044621;28;20474;-61
2022/04/01 05:37:14;;;;;;;7.60;5.47;;;;;;;6.63;100.00;94123.97;5045166;28;20057;-60
2022/04/01 05:39:46;;;;;;;7.30;5.70;;;;;;;6.99;100.00;94125.94;5048290;28;20060;-62
2022/04/01 05:42:18;;;;;;;6.93;5.40;;;;;;;7.10;100.00;94128.91;5045946;28;20083;-62
2022/04/01 05:44:47;;;;;;;5.32;4.55;;;;;;;6.69;100.00;94130.31;5048829;28;20710;-62
2022/04/01 05:47:16;;;;;;;4.68;4.00;;;;;;;6.73;100.00;94142.06;5048853;28;20099;-61
2022/04/01 05:49:46;;;;;;;3.77;3.40;;;;;;;6.56;100.00;94146.63;5048387;28;20068;-59
2022/04/01 05:52:14;;;;;;;3.05;2.80;;;;;;;6.52;100.00;94146.16;5048489;28;20060;-62
2022/04/01 05:54:43;;;;;;;2.40;2.20;;;;;;;6.20;100.00;94155.09;5048053;28;20507;-61
2022/04/01 05:57:11;;;;;;;3.28;2.97;;;;;;;6.38;100.00;94154.78;5048557;28;20092;-62
2022/04/01 05:59:41;;;;;;;2.33;2.20;;;;;;;6.35;100.00;94144.69;5048696;28;20121;-62
2022/04/01 06:02:24;;;;;;;2.85;2.60;;;;;;;6.26;100.00;94141.28;5048747;28;20072;-61
2022/04/01 06:05:06;;;;;;;2.60;2.40;;;;;;;5.94;100.00;94145.78;5048513;28;20081;-61
2022/04/01 06:07:38;;;;;;;2.53;2.30;;;;;;;5.92;100.00;94145.16;5048298;28;20061;-62
2022/04/01 06:10:09;;;;;;;3.90;2.83;;;;;;;6.21;100.00;94151.47;5048167;28;20065;-61
2022/04/01 06:12:45;;;;;;;2.80;2.60;;;;;;;5.82;100.00;94154.97;5052559;28;20071;-62
2022/04/01 06:15:22;;;;;;;3.13;2.90;;;;;;;5.74;100.00;94151.59;5048267;28;20542;-61
2022/04/01 06:18:02;;;;;;;4.45;3.08;;;;;;;5.99;100.00;94157.50;5048862;28;20092;-62
2022/04/01 06:20:33;;;;;;;3.42;3.00;;;;;;;5.72;100.00;94157.81;5047676;28;22024;-62
2022/04/01 06:23:07;;;;;;;3.35;3.05;;;;;;;5.94;100.00;94161.47;5048461;28;20099;-61
2022/04/01 06:25:41;;;;;;;3.58;3.28;;;;;;;5.54;100.00;94157.25;5042451;28;20081;-62
2022/04/01 06:28:16;;;;;;;3.63;3.28;;;;;;;5.75;100.00;94161.88;5042596;28;20068;-61
2022/04/01 06:30:46;;;;;;;3.00;2.75;;;;;;;5.41;100.00;94160.41;5048124;28;20065;-61
2022/04/01 06:33:22;;;;;;;3.70;3.40;;;;;;;5.63;100.00;94164.06;5047985;28;20076;-62
2022/04/01 06:35:55;;;;;;;3.00;2.80;;;;;;;5.26;100.00;94163.88;5045350;28;20753;-61
2022/04/01 06:38:32;;;;;;;3.38;3.08;;;;;;;5.23;100.00;94168.47;5047747;28;20076;-62
2022/04/01 06:41:05;;;;;;;3.28;2.97;;;;;;;5.44;100.00;94164.50;5047282;28;20183;-59
2022/04/01 06:43:34;;;;;;;3.55;3.25;;;;;;;5.28;100.00;94170.56;5047776;28;20065;-58
2022/04/01 06:46:04;;;;;;;3.65;3.35;;;;;;;5.44;100.00;94170.53;5048303;28;20061;-60
2022/04/01 06:48:32;;;;;;;3.70;3.40;;;;;;;5.34;100.00;94179.56;5047878;28;20065;-62
2022/04/01 06:51:01;;;;;;;2.95;2.75;;;;;;;5.29;100.00;94179.22;5042249;28;20093;-60
2022/04/01 06:53:29;;;;;;;3.50;2.95;;;;;;;5.21;100.00;94180.88;5052268;28;20084;-60
2022/04/01 06:55:57;;;;;;;5.97;4.28;;;;;;;5.38;100.00;94183.44;5045918;28;20060;-61
2022/04/01 06:58:30;;;;;;;3.25;2.97;;;;;;;5.34;100.00;94182.97;5052131;28;20132;-61
2022/04/01 07:00:58;;;;;;;3.83;3.42;;;;;;;5.32;100.00;94184.13;5051656;28;20511;-62
2022/04/01 07:03:35;;;;;;;3.50;3.20;;;;;;;5.27;100.00;94187.25;5051581;28;20459;-62
2022/04/01 07:06:05;;;;;;;3.38;3.08;;;;;;;5.11;100.00;94193.31;5052106;28;20052;-57
2022/04/01 07:08:33;;;;;;;4.40;2.90;;;;;;;4.95;100.00;94186.31;5048393;28;20401;-60
2022/04/01 07:11:02;;;;;;;3.45;3.15;;;;;;;4.93;100.00;94184.88;5051701;28;20068;-61
2022/04/01 07:13:30;;;;;;;4.07;2.78;;;;;;;5.10;100.00;94183.03;5057436;28;20079;-61
2022/04/01 07:15:58;;;;;;;4.72;2.70;;;;;;;4.93;100.00;94174.44;5051220;28;20096;-61
2022/04/01 07:18:27;;;;;;;2.80;2.60;;;;;;;4.96;100.00;94185.34;5051512;28;20076;-61
2022/04/01 07:20:56;;;;;;;3.42;2.72;;;;;;;4.97;100.00;94181.75;5051885;28;20075;-60
2022/04/01 07:23:25;;;;;;;2.60;2.40;;;;;;;4.68;100.00;94186.69;5051960;28;20065;-59
2022/04/01 07:25:53;;;;;;;2.78;2.58;;;;;;;4.81;100.00;94187.00;5051039;28;20431;-61
2022/04/01 07:28:21;;;;;;;2.47;2.30;;;;;;;4.79;100.00;94181.16;5051496;28;20061;-60
2022/04/01 07:30:50;;;;;;;3.33;3.03;;;;;;;4.71;100.00;94194.19;5051208;28;20083;-61
2022/04/01 07:33:19;;;;;;;2.70;2.50;;;;;;;4.93;100.00;94190.91;5051550;28;20071;-61
2022/04/01 07:35:49;;;;;;;2.55;2.35;;;;;;;4.94;100.00;94195.16;5050849;28;20064;-61
2022/04/01 07:38:18;;;;;;;2.90;2.70;;;;;;;4.80;100.00;94200.22;5050060;28;20061;-60
2022/04/01 07:40:47;;;;;;;2.60;2.40;;;;;;;4.77;100.00;94203.97;5051021;28;20521;-59
2022/04/01 07:43:15;;;;;;;3.03;2.72;;;;;;;4.71;100.00;94202.03;5051047;28;20065;-60
2022/04/01 07:45:43;;;;;;;3.40;2.80;;;;;;;4.84;100.00;94207.56;5050233;28;20128;-62
2022/04/01 07:48:12;;;;;;;3.97;2.70;;;;;;;4.80;100.00;94214.09;5051123;28;20064;-61
2022/04/01 07:50:41;;;;;;;2.70;2.50;;;;;;;4.61;100.00;94204.81;5049500;28;20408;-60
2022/04/01 07:53:09;;;;;;;2.50;2.30;;;;;;;4.73;100.00;94208.72;5050955;28;20072;-61
2022/04/01 07:55:39;;;;;;;2.60;2.40;;;;;;;4.75;100.00;94203.34;5050685;28;20435;-60
2022/04/01 07:58:09;;;;;;;3.33;2.58;;;;;;;4.80;100.00;94219.31;5051115;28;20558;-61
2022/04/01 08:00:53;;;;;;;3.17;2.55;;;;;;;4.71;100.00;94212.47;5048815;28;20064;-62
2022/04/01 08:03:21;;;;;;;2.42;2.28;;;;;;;4.89;100.00;94214.91;5048354;28;20056;-62
2022/04/01 08:05:49;;;;;;;3.78;2.53;;;;;;;4.76;100.00;94213.63;5051134;28;20104;-61
2022/04/01 08:08:19;;;;;;;2.30;2.15;;;;;;;5.06;100.00;94213.06;5065990;28;20041;-61
2022/04/01 08:10:48;;;;;;;2.63;2.42;;;;;;;5.38;100.00;94222.66;5050380;28;20053;-61
2022/04/01 08:13:17;;;;;;;2.63;2.43;;;;;;;5.11;100.00;94219.44;5055394;28;20098;-61
2022/04/01 08:15:46;;;;;;;2.80;2.60;;;;;;;5.30;100.00;94217.44;5050824;28;20083;-60
2022/04/01 08:18:19;;;;;;;3.20;2.90;;;;;;;5.28;100.00;94228.06;5050529;28;20071;-60
2022/04/01 08:20:48;;;;;;;2.72;2.53;;;;;;;5.27;100.00;94230.84;5050937;28;20088;-62
2022/04/01 08:23:18;;;;;;;2.85;2.65;;;;;;;5.17;100.00;94228.41;5050623;28;20068;-62
2022/04/01 08:25:46;;;;;;;2.50;2.30;;;;;;;5.23;100.00;94225.97;5050342;28;20068;-61
2022/04/01 08:28:16;;;;;;;5.63;2.40;;;;;;;5.03;100.00;94242.16;5050610;28;20071;-60
2022/04/01 08:30:44;;;;;;;2.80;2.60;;;;;;;5.81;100.00;94233.59;5049954;28;20071;-59
2022/04/01 08:33:17;;;;;;;2.75;2.55;;;;;;;5.47;100.00;94240.75;5050066;28;20487;-58
2022/04/01 08:35:45;;;;;;;2.30;2.20;;;;;;;5.35;100.00;94246.50;5047456;28;20085;-56
2022/04/01 08:38:14;;;;;;;2.90;2.60;;;;;;;5.53;100.00;94247.09;5049677;28;20072;-61
2022/04/01 08:40:43;;;;;;;2.70;2.50;;;;;;;5.69;100.00;94254.06;5049438;28;20056;-60
2022/04/01 08:43:11;;;;;;;2.83;2.63;;;;;;;5.72;100.00;94256.34;5049800;28;20064;-57
2022/04/01 08:45:41;;;;;;;2.65;2.45;;;;;;;4.99;100.00;94266.00;5047985;28;20139;-62
2022/04/01 08:48:11;;;;;;;2.83;2.63;;;;;;;5.40;100.00;94263.31;5049942;28;20629;-60
2022/04/01 08:50:42;;;;;;;2.58;2.40;;;;;;;5.06;100.00;94258.31;5049864;28;20080;-62
2022/04/01 08:53:10;;;;;;;2.97;2.78;;;;;;;5.26;100.00;94263.97;5049480;28;20075;-61
2022/04/01 08:55:40;;;;;;;2.53;2.33;;;;;;;5.28;100.00;94264.63;5049561;28;20075;-57
2022/04/01 08:58:08;;;;;;;2.58;2.40;;;;;;;5.16;100.00;94272.00;5049805;28;20072;-60
2022/04/01 09:00:38;;;;;;;2.78;2.58;;;;;;;5.50;100.00;94268.34;5044932;28;20083;-58
2022/04/01 09:03:09;;;;;;;2.90;2.70;;;;;;;5.37;100.00;94266.25;5049583;28;20093;-61
2022/04/01 09:05:38;;;;;;;2.70;2.50;;;;;;;5.75;100.00;94279.56;5049441;28;20085;-60
2022/04/01 09:08:09;;;;;;;2.67;2.47;;;;;;;5.18;100.00;94272.66;5049771;28;20523;-60
2022/04/01 09:10:57;;;;;;;3.00;2.70;;;;;;;4.99;100.00;94284.28;5049091;28;20065;-59
2022/04/01 09:13:27;;;;;;;2.60;2.40;;;;;;;5.28;100.00;94282.94;5053664;28;20084;-58
2022/04/01 09:15:56;;;;;;;3.00;2.80;;;;;;;5.30;100.00;94286.19;5048934;28;20064;-59
2022/04/01 09:18:50;;;;;;;2.85;2.65;;;;;;;5.71;100.00;94293.91;5049576;28;20068;-57
2022/04/01 09:21:18;;;;;;;2.42;2.33;;;;;;;5.26;100.00;94290.09;5031018;28;20069;-62
2022/04/01 09:23:47;;;;;;;2.88;2.67;;;;;;;5.41;100.00;94300.72;5049923;28;20088;-61
2022/04/01 09:26:21;;;;;;;2.63;2.40;;;;;;;5.38;100.00;94288.78;5049030;28;20067;-61
2022/04/01 09:28:52;;;;;;;2.90;2.70;;;;;;;5.18;100.00;94293.53;5049351;28;20068;-58
2022/04/01 09:31:31;;;;;;;2.70;2.50;;;;;;;5.30;100.00;94296.66;5043513;28;20075;-60
2022/04/01 09:34:11;;;;;;;2.80;2.53;;;;;;;5.37;100.00;94302.84;5048862;28;20056;-58
2022/04/01 09:36:41;;;;;;;2.53;2.33;;;;;;;5.09;100.00;94306.78;5048842;28;20522;-60
2022/04/01 09:39:11;;;;;;;2.70;2.50;;;;;;;5.47;100.00;94298.25;5048599;28;20087;-60
2022/04/01 09:41:42;;;;;;;2.67;2.47;;;;;;;5.57;100.00;94295.44;5047763;28;20479;-61
2022/04/01 09:44:26;;;;;;;2.20;2.10;;;;;;;5.19;100.00;94304.81;5046798;28;20080;-61
2022/04/01 09:46:58;;;;;;;2.58;2.38;;;;;;;5.29;100.00;94310.69;5048624;28;20479;-60
2022/04/01 09:49:33;;;;;;;2.90;2.70;;;;;;;5.84;100.00;94309.09;5048878;28;20064;-62
2022/04/01 09:52:06;;;;;;;2.60;2.40;;;;;;;5.53;100.00;94309.00;5048519;28;20063;-60
2022/04/01 09:54:34;;;;;;;;;;;;;;;5.32;100.00;94312.16;5049118;28;20069;-60
2022/04/01 09:57:03;;;;;;;2.70;2.50;;;;;;;5.27;100.00;94306.63;5048580;28;20038;-61
2022/04/01 09:59:33;;;;;;;2.30;2.20;;;;;;;5.86;100.00;94313.19;5048650;28;20091;-59
2022/04/01 10:02:02;;;;;;;2.80;2.40;;;;;;;5.74;100.00;94318.91;5048804;28;20076;-60
2022/04/01 10:04:32;;;;;;;2.38;2.20;;;;;;;5.28;100.00;94321.31;5048895;28;20073;-58
2022/04/01 10:07:00;;;;;;;2.53;2.30;;;;;;;5.35;100.00;94319.66;5048290;28;20076;-62
2022/04/01 10:09:30;;;;;;;2.40;2.20;;;;;;;5.24;100.00;94326.03;5048410;28;20064;-56
2022/04/01 10:12:20;;;;;;;2.47;2.30;;;;;;;5.03;100.00;94328.34;5051622;28;20072;-55
2022/04/01 10:14:48;;;;;;;2.50;2.30;;;;;;;5.47;100.00;94329.63;5048997;28;20523;-58
2022/04/01 10:17:29;;;;;;;3.30;2.58;;;;;;;5.08;100.00;94339.09;5047538;28;20300;-58
2022/04/01 10:20:02;;;;;;;2.60;2.40;;;;;;;4.74;100.00;94332.22;5048222;28;20088;-59
2022/04/01 10:22:30;;;;;;;2.35;2.25;;;;;;;4.84;100.00;94334.69;5048411;28;20068;-57
2022/04/01 10:25:04;;;;;;;2.70;2.50;;;;;;;5.19;100.00;94338.78;5045964;28;20644;-57
2022/04/01 10:27:37;;;;;;;2.20;2.10;;;;;;;5.14;100.00;94328.00;5049112;28;20061;-61
2022/04/01 10:30:08;;;;;;;2.20;2.10;;;;;;;4.95;100.00;94329.13;5052059;28;20077;-61
2022/04/01 10:32:40;;;;;;;2.25;2.15;;;;;;;5.05;100.00;94332.41;5052792;28;20080;-61
2022/04/01 10:35:22;;;;;;;2.40;2.30;;;;;;;5.20;100.00;94338.63;5051204;28;20060;-59
2022/04/01 10:37:55;;;;;;;2.33;2.22;;;;;;;4.95;100.00;94340.38;5048816;28;20053;-59
2022/04/01 10:40:25;;;;;;;2.55;2.45;;;;;;;5.14;100.00;94343.69;5052122;28;20452;-58
2022/04/01 10:42:55;;;;;;;2.65;2.45;;;;;;;5.27;100.00;94335.34;5052406;28;20069;-57
2022/04/01 10:45:27;;;;;;;2.63;2.42;;;;;;;5.49;100.00;94339.88;5052193;28;20068;-62
2022/04/01 10:53:39;;;;;;;2.10;2.00;;;;;;;5.14;100.00;94344.50;5027867;28;20384;-62
2022/04/01 10:56:26;;;;;;;2.53;2.33;;;;;;;5.56;100.00;94343.47;5032063;28;20508;-61
2022/04/01 10:59:02;;;;;;;2.50;2.30;;;;;;;5.61;100.00;94346.41;5024097;28;20065;-60
2022/04/01 11:01:31;;;;;;;2.33;2.20;;;;;;;5.15;100.00;94351.34;5032033;28;20068;-62
2022/04/01 11:04:05;;;;;;;2.67;2.50;;;;;;;5.49;100.00;94352.97;5032225;28;20072;-61
2022/04/01 11:06:50;;;;;;;2.20;2.10;;;;;;;5.07;100.00;94368.81;5030402;28;20069;-62
2022/04/01 11:09:37;;;;;;;2.40;2.30;;;;;;;5.53;100.00;94362.09;5031439;28;20073;-60
2022/04/01 11:12:38;;;;;;;2.40;2.30;;;;;;;5.07;100.00;94369.63;5026253;28;20068;-60
2022/04/01 11:15:27;;;;;;;2.35;2.25;;;;;;;5.12;100.00;94356.06;5030658;28;20108;-62
2022/04/01 11:18:03;;;;;;;5.15;4.75;;;;;;;4.94;100.00;94358.84;5032252;28;20103;-60
2022/04/01 11:20:35;;;;;;;2.38;2.28;;;;;;;5.33;100.00;94364.22;5030742;28;20256;-61
2022/04/01 11:23:13;;;;;;;2.33;2.20;;;;;;;5.09;100.00;94354.59;5047867;28;20052;-61
2022/04/01 11:25:54;;;;;;;2.33;2.22;;;;;;;5.34;100.00;94357.25;5049382;28;20064;-53
2022/04/01 11:28:25;;;;;;;2.78;2.58;;;;;;;5.09;100.00;94357.22;5051267;28;20144;-58
2022/04/01 11:31:07;;;;;;;;;;;;;;;5.00;100.00;94369.47;5045559;28;20096;-61
2022/04/01 11:33:35;;;;;;;2.70;2.50;;;;;;;5.15;100.00;94367.00;5047752;28;19976;-61
2022/04/01 11:36:04;;;;;;;2.65;2.45;;;;;;;5.21;100.00;94363.75;5043870;28;20474;-60
2022/04/01 11:38:34;;;;;;;2.80;2.60;;;;;;;5.12;100.00;94364.72;5047532;28;20081;-60
2022/04/01 11:41:04;;;;;;;3.00;2.35;;;;;;;4.78;100.00;94364.03;5047473;28;20479;-58
2022/04/01 11:43:34;;;;;;;2.60;2.40;;;;;;;5.02;100.00;94369.28;5046426;28;20064;-57
2022/04/01 11:46:05;;;;;;;3.00;2.80;;;;;;;4.96;100.00;94368.16;5044770;28;20487;-60
2022/04/01 11:48:36;;;;;;;2.78;2.58;;;;;;;5.00;100.00;94371.25;5045573;28;20071;-60
2022/04/01 11:51:06;;;;;;;2.50;2.40;;;;;;;5.28;100.00;94370.94;5043621;28;20930;-60
2022/04/01 11:53:38;;;;;;;2.88;2.67;;;;;;;5.24;100.00;94370.47;5044725;28;20085;-61
2022/04/01 11:56:08;;;;;;;3.40;2.60;;;;;;;5.23;100.00;94364.44;5045377;28;20451;-60
2022/04/01 11:58:50;;;;;;;2.80;2.60;;;;;;;5.17;100.00;94370.28;5045839;28;20068;-61